sensor_id;sensor_type;location;lat;lon;timestamp;P1;durP1;ratioP1;P2;durP2;ratioP2
77573;SDS011;66710;48.868;9.080;2023-06-04T00:00:33;7.75;;;5.30;;
77573;SDS011;66710;48.868;9.080;2023-06-04T00:02:59;7.57;;;5.10;;
77573;SDS011;66710;48.868;9.080;2023-06-04T00:05:24;8.35;;;5.35;;
77573;SDS011;66710;48.868;9.080;2023-06-04T00:07:51;7.80;;;5.10;;
77573;SDS011;66710;48.868;9.080;2023-06-04T00:10:16;9.13;;;5.20;;
77573;SDS011;66710;48.868;9.080;2023-06-04T00:12:42;8.07;;;5.10;;
77573;SDS011;66710;48.868;9.080;2023-06-04T00:15:07;8.25;;;4.78;;
77573;SDS011;66710;48.868;9.080;2023-06-04T00:17:33;9.07;;;5.05;;
77573;SDS011;66710;48.868;9.080;2023-06-04T00:19:58;8.02;;;4.88;;
77573;SDS011;66710;48.868;9.080;2023-06-04T00:22:24;8.77;;;4.80;;
77573;SDS011;66710;48.868;9.080;2023-06-04T00:24:49;7.43;;;5.10;;
77573;SDS011;66710;48.868;9.080;2023-06-04T00:27:14;9.02;;;4.90;;
77573;SDS011;66710;48.868;9.080;2023-06-04T00:29:40;8.80;;;5.20;;
77573;SDS011;66710;48.868;9.080;2023-06-04T00:32:05;7.82;;;5.18;;
77573;SDS011;66710;48.868;9.080;2023-06-04T00:34:31;8.73;;;5.32;;
77573;SDS011;66710;48.868;9.080;2023-06-04T00:36:56;9.05;;;5.60;;
77573;SDS011;66710;48.868;9.080;2023-06-04T00:39:21;11.75;;;5.25;;
77573;SDS011;66710;48.868;9.080;2023-06-04T00:41:47;7.82;;;4.90;;
77573;SDS011;66710;48.868;9.080;2023-06-04T00:44:12;9.60;;;5.38;;
77573;SDS011;66710;48.868;9.080;2023-06-04T00:46:37;8.20;;;5.45;;
77573;SDS011;66710;48.868;9.080;2023-06-04T00:49:03;9.27;;;5.18;;
77573;SDS011;66710;48.868;9.080;2023-06-04T00:51:30;8.55;;;5.50;;
77573;SDS011;66710;48.868;9.080;2023-06-04T00:53:56;7.93;;;5.00;;
77573;SDS011;66710;48.868;9.080;2023-06-04T00:56:23;8.82;;;5.50;;
77573;SDS011;66710;48.868;9.080;2023-06-04T00:58:48;11.07;;;6.13;;
77573;SDS011;66710;48.868;9.080;2023-06-04T01:01:20;8.20;;;5.45;;
77573;SDS011;66710;48.868;9.080;2023-06-04T01:03:49;9.13;;;5.78;;
77573;SDS011;66710;48.868;9.080;2023-06-04T01:06:21;8.18;;;5.55;;
77573;SDS011;66710;48.868;9.080;2023-06-04T01:08:57;9.43;;;5.10;;
77573;SDS011;66710;48.868;9.080;2023-06-04T01:11:30;8.20;;;5.30;;
77573;SDS011;66710;48.868;9.080;2023-06-04T01:14:00;8.75;;;4.93;;
77573;SDS011;66710;48.868;9.080;2023-06-04T01:16:26;8.18;;;4.75;;
77573;SDS011;66710;48.868;9.080;2023-06-04T01:18:53;7.15;;;5.07;;
77573;SDS011;66710;48.868;9.080;2023-06-04T01:21:24;11.38;;;5.05;;
77573;SDS011;66710;48.868;9.080;2023-06-04T01:23:53;6.93;;;4.90;;
77573;SDS011;66710;48.868;9.080;2023-06-04T01:28:51;11.80;;;5.47;;
77573;SDS011;66710;48.868;9.080;2023-06-04T01:31:18;9.20;;;5.13;;
77573;SDS011;66710;48.868;9.080;2023-06-04T01:33:47;8.90;;;4.90;;
77573;SDS011;66710;48.868;9.080;2023-06-04T01:36:16;9.93;;;5.80;;
77573;SDS011;66710;48.868;9.080;2023-06-04T01:38:41;8.23;;;5.20;;
77573;SDS011;66710;48.868;9.080;2023-06-04T01:41:07;8.70;;;5.22;;
77573;SDS011;66710;48.868;9.080;2023-06-04T01:43:32;9.40;;;5.43;;
77573;SDS011;66710;48.868;9.080;2023-06-04T01:46:00;8.73;;;5.20;;
77573;SDS011;66710;48.868;9.080;2023-06-04T01:48:25;8.18;;;5.40;;
77573;SDS011;66710;48.868;9.080;2023-06-04T01:50:51;8.57;;;4.80;;
77573;SDS011;66710;48.868;9.080;2023-06-04T01:53:16;8.55;;;5.15;;
77573;SDS011;66710;48.868;9.080;2023-06-04T01:55:41;7.72;;;4.80;;
77573;SDS011;66710;48.868;9.080;2023-06-04T01:58:07;7.70;;;4.82;;
77573;SDS011;66710;48.868;9.080;2023-06-04T02:00:34;8.30;;;5.10;;
77573;SDS011;66710;48.868;9.080;2023-06-04T02:02:59;9.57;;;5.25;;
77573;SDS011;66710;48.868;9.080;2023-06-04T02:05:25;7.88;;;5.43;;
77573;SDS011;66710;48.868;9.080;2023-06-04T02:07:50;10.05;;;5.43;;
77573;SDS011;66710;48.868;9.080;2023-06-04T02:10:17;7.93;;;5.70;;
77573;SDS011;66710;48.868;9.080;2023-06-04T02:13:00;7.40;;;5.03;;
77573;SDS011;66710;48.868;9.080;2023-06-04T02:15:30;9.65;;;5.20;;
77573;SDS011;66710;48.868;9.080;2023-06-04T02:17:57;7.85;;;4.95;;
77573;SDS011;66710;48.868;9.080;2023-06-04T02:20:25;9.48;;;4.72;;
77573;SDS011;66710;48.868;9.080;2023-06-04T02:22:53;7.85;;;4.90;;
77573;SDS011;66710;48.868;9.080;2023-06-04T02:25:19;7.35;;;4.60;;
77573;SDS011;66710;48.868;9.080;2023-06-04T02:27:44;8.13;;;4.88;;
77573;SDS011;66710;48.868;9.080;2023-06-04T02:30:10;6.47;;;4.25;;
77573;SDS011;66710;48.868;9.080;2023-06-04T02:32:35;6.45;;;4.28;;
77573;SDS011;66710;48.868;9.080;2023-06-04T02:35:01;6.22;;;3.78;;
77573;SDS011;66710;48.868;9.080;2023-06-04T02:37:27;6.95;;;4.22;;
77573;SDS011;66710;48.868;9.080;2023-06-04T02:39:52;7.30;;;4.35;;
77573;SDS011;66710;48.868;9.080;2023-06-04T02:42:17;6.93;;;4.40;;
77573;SDS011;66710;48.868;9.080;2023-06-04T02:44:43;9.13;;;4.35;;
77573;SDS011;66710;48.868;9.080;2023-06-04T02:47:08;7.35;;;4.35;;
77573;SDS011;66710;48.868;9.080;2023-06-04T02:49:33;8.75;;;4.60;;
77573;SDS011;66710;48.868;9.080;2023-06-04T02:51:59;8.07;;;4.65;;
77573;SDS011;66710;48.868;9.080;2023-06-04T02:54:24;7.72;;;4.30;;
77573;SDS011;66710;48.868;9.080;2023-06-04T02:56:49;8.35;;;4.40;;
77573;SDS011;66710;48.868;9.080;2023-06-04T02:59:14;8.52;;;4.30;;
77573;SDS011;66710;48.868;9.080;2023-06-04T03:01:40;7.35;;;4.80;;
77573;SDS011;66710;48.868;9.080;2023-06-04T03:04:05;7.28;;;4.47;;
77573;SDS011;66710;48.868;9.080;2023-06-04T03:06:35;7.18;;;4.38;;
77573;SDS011;66710;48.868;9.080;2023-06-04T03:09:03;7.13;;;4.43;;
77573;SDS011;66710;48.868;9.080;2023-06-04T03:11:28;6.35;;;3.83;;
77573;SDS011;66710;48.868;9.080;2023-06-04T03:13:54;8.80;;;4.72;;
77573;SDS011;66710;48.868;9.080;2023-06-04T03:16:19;5.57;;;4.00;;
77573;SDS011;66710;48.868;9.080;2023-06-04T03:18:45;6.10;;;4.00;;
77573;SDS011;66710;48.868;9.080;2023-06-04T03:21:11;6.80;;;4.10;;
77573;SDS011;66710;48.868;9.080;2023-06-04T03:23:36;7.57;;;4.47;;
77573;SDS011;66710;48.868;9.080;2023-06-04T03:26:02;6.82;;;3.92;;
77573;SDS011;66710;48.868;9.080;2023-06-04T03:28:28;6.82;;;4.03;;
77573;SDS011;66710;48.868;9.080;2023-06-04T03:30:55;5.97;;;3.88;;
77573;SDS011;66710;48.868;9.080;2023-06-04T03:33:20;6.97;;;4.18;;
77573;SDS011;66710;48.868;9.080;2023-06-04T03:35:45;6.38;;;3.80;;
77573;SDS011;66710;48.868;9.080;2023-06-04T03:38:12;7.40;;;3.70;;
77573;SDS011;66710;48.868;9.080;2023-06-04T03:40:38;5.75;;;3.47;;
77573;SDS011;66710;48.868;9.080;2023-06-04T03:43:03;6.85;;;3.60;;
77573;SDS011;66710;48.868;9.080;2023-06-04T03:45:29;5.97;;;3.53;;
77573;SDS011;66710;48.868;9.080;2023-06-04T03:47:55;7.18;;;3.40;;
77573;SDS011;66710;48.868;9.080;2023-06-04T03:50:20;6.35;;;3.70;;
77573;SDS011;66710;48.868;9.080;2023-06-04T03:52:45;6.90;;;3.97;;
77573;SDS011;66710;48.868;9.080;2023-06-04T03:55:11;6.25;;;3.47;;
77573;SDS011;66710;48.868;9.080;2023-06-04T03:57:36;7.32;;;3.80;;
77573;SDS011;66710;48.868;9.080;2023-06-04T04:00:03;7.20;;;3.80;;
77573;SDS011;66710;48.868;9.080;2023-06-04T04:02:33;5.40;;;3.50;;
77573;SDS011;66710;48.868;9.080;2023-06-04T04:04:59;7.22;;;3.53;;
77573;SDS011;66710;48.868;9.080;2023-06-04T04:07:24;7.03;;;3.47;;
77573;SDS011;66710;48.868;9.080;2023-06-04T04:09:51;6.60;;;3.67;;
77573;SDS011;66710;48.868;9.080;2023-06-04T04:12:17;7.15;;;3.83;;
77573;SDS011;66710;48.868;9.080;2023-06-04T04:14:42;6.03;;;3.30;;
77573;SDS011;66710;48.868;9.080;2023-06-04T04:17:07;6.43;;;3.25;;
77573;SDS011;66710;48.868;9.080;2023-06-04T04:19:32;6.03;;;3.40;;
77573;SDS011;66710;48.868;9.080;2023-06-04T04:21:58;6.40;;;3.40;;
77573;SDS011;66710;48.868;9.080;2023-06-04T04:24:24;6.63;;;3.10;;
77573;SDS011;66710;48.868;9.080;2023-06-04T04:26:51;6.85;;;3.50;;
77573;SDS011;66710;48.868;9.080;2023-06-04T04:29:20;6.93;;;3.35;;
77573;SDS011;66710;48.868;9.080;2023-06-04T04:31:48;7.40;;;3.67;;
77573;SDS011;66710;48.868;9.080;2023-06-04T04:34:16;6.57;;;3.40;;
77573;SDS011;66710;48.868;9.080;2023-06-04T04:36:41;5.38;;;2.80;;
77573;SDS011;66710;48.868;9.080;2023-06-04T04:39:09;6.32;;;3.65;;
77573;SDS011;66710;48.868;9.080;2023-06-04T04:41:34;5.20;;;3.25;;
77573;SDS011;66710;48.868;9.080;2023-06-04T04:44:03;5.53;;;3.35;;
77573;SDS011;66710;48.868;9.080;2023-06-04T04:46:29;5.90;;;3.20;;
77573;SDS011;66710;48.868;9.080;2023-06-04T04:48:54;5.63;;;3.30;;
77573;SDS011;66710;48.868;9.080;2023-06-04T04:51:20;6.13;;;3.13;;
77573;SDS011;66710;48.868;9.080;2023-06-04T04:53:45;4.80;;;2.90;;
77573;SDS011;66710;48.868;9.080;2023-06-04T04:56:10;5.43;;;3.17;;
77573;SDS011;66710;48.868;9.080;2023-06-04T04:58:35;5.32;;;3.10;;
77573;SDS011;66710;48.868;9.080;2023-06-04T05:01:01;6.97;;;3.05;;
77573;SDS011;66710;48.868;9.080;2023-06-04T05:03:26;4.93;;;2.88;;
77573;SDS011;66710;48.868;9.080;2023-06-04T05:05:51;6.13;;;3.03;;
77573;SDS011;66710;48.868;9.080;2023-06-04T05:08:17;5.30;;;2.88;;
77573;SDS011;66710;48.868;9.080;2023-06-04T05:10:42;5.47;;;3.05;;
77573;SDS011;66710;48.868;9.080;2023-06-04T05:13:07;5.05;;;2.80;;
77573;SDS011;66710;48.868;9.080;2023-06-04T05:15:33;6.30;;;2.80;;
77573;SDS011;66710;48.868;9.080;2023-06-04T05:17:59;7.10;;;3.08;;
77573;SDS011;66710;48.868;9.080;2023-06-04T05:20:25;5.50;;;2.67;;
77573;SDS011;66710;48.868;9.080;2023-06-04T05:22:51;6.22;;;2.80;;
77573;SDS011;66710;48.868;9.080;2023-06-04T05:25:16;4.40;;;2.53;;
77573;SDS011;66710;48.868;9.080;2023-06-04T05:27:42;6.68;;;2.90;;
77573;SDS011;66710;48.868;9.080;2023-06-04T05:30:08;5.30;;;2.70;;
77573;SDS011;66710;48.868;9.080;2023-06-04T05:32:33;4.57;;;2.75;;
77573;SDS011;66710;48.868;9.080;2023-06-04T05:35:01;4.38;;;2.58;;
77573;SDS011;66710;48.868;9.080;2023-06-04T05:37:29;4.10;;;2.55;;
77573;SDS011;66710;48.868;9.080;2023-06-04T05:39:56;5.13;;;2.78;;
77573;SDS011;66710;48.868;9.080;2023-06-04T05:42:21;4.82;;;2.90;;
77573;SDS011;66710;48.868;9.080;2023-06-04T05:44:47;7.15;;;2.97;;
77573;SDS011;66710;48.868;9.080;2023-06-04T05:47:13;5.15;;;2.80;;
77573;SDS011;66710;48.868;9.080;2023-06-04T05:49:38;5.63;;;2.78;;
77573;SDS011;66710;48.868;9.080;2023-06-04T05:52:03;4.45;;;2.60;;
77573;SDS011;66710;48.868;9.080;2023-06-04T05:54:30;5.15;;;2.33;;
77573;SDS011;66710;48.868;9.080;2023-06-04T05:56:55;4.82;;;2.33;;
77573;SDS011;66710;48.868;9.080;2023-06-04T05:59:21;5.32;;;3.03;;
77573;SDS011;66710;48.868;9.080;2023-06-04T06:01:46;3.65;;;2.40;;
77573;SDS011;66710;48.868;9.080;2023-06-04T06:04:13;5.40;;;2.30;;
77573;SDS011;66710;48.868;9.080;2023-06-04T06:06:38;4.50;;;2.53;;
77573;SDS011;66710;48.868;9.080;2023-06-04T06:09:04;3.95;;;2.05;;
77573;SDS011;66710;48.868;9.080;2023-06-04T06:11:30;6.72;;;2.70;;
77573;SDS011;66710;48.868;9.080;2023-06-04T06:13:55;6.10;;;2.55;;
77573;SDS011;66710;48.868;9.080;2023-06-04T06:16:20;3.60;;;2.10;;
77573;SDS011;66710;48.868;9.080;2023-06-04T06:18:46;4.78;;;2.47;;
77573;SDS011;66710;48.868;9.080;2023-06-04T06:21:12;4.05;;;2.38;;
77573;SDS011;66710;48.868;9.080;2023-06-04T06:23:37;5.30;;;2.20;;
77573;SDS011;66710;48.868;9.080;2023-06-04T06:26:02;6.13;;;2.22;;
77573;SDS011;66710;48.868;9.080;2023-06-04T06:28:29;5.72;;;2.60;;
77573;SDS011;66710;48.868;9.080;2023-06-04T06:30:54;3.97;;;2.25;;
77573;SDS011;66710;48.868;9.080;2023-06-04T06:33:20;5.00;;;2.53;;
77573;SDS011;66710;48.868;9.080;2023-06-04T06:35:46;4.10;;;2.35;;
77573;SDS011;66710;48.868;9.080;2023-06-04T06:38:12;4.95;;;2.38;;
77573;SDS011;66710;48.868;9.080;2023-06-04T06:40:38;4.45;;;2.20;;
77573;SDS011;66710;48.868;9.080;2023-06-04T06:43:03;4.43;;;2.30;;
77573;SDS011;66710;48.868;9.080;2023-06-04T06:45:28;4.75;;;2.33;;
77573;SDS011;66710;48.868;9.080;2023-06-04T06:47:53;4.95;;;2.38;;
77573;SDS011;66710;48.868;9.080;2023-06-04T06:50:19;3.83;;;2.22;;
77573;SDS011;66710;48.868;9.080;2023-06-04T06:52:44;6.07;;;2.55;;
77573;SDS011;66710;48.868;9.080;2023-06-04T06:55:09;3.83;;;2.10;;
77573;SDS011;66710;48.868;9.080;2023-06-04T06:57:35;4.75;;;2.45;;
77573;SDS011;66710;48.868;9.080;2023-06-04T07:00:00;4.85;;;2.15;;
77573;SDS011;66710;48.868;9.080;2023-06-04T07:02:25;6.30;;;2.50;;
77573;SDS011;66710;48.868;9.080;2023-06-04T07:04:51;4.10;;;2.28;;
77573;SDS011;66710;48.868;9.080;2023-06-04T07:07:16;3.75;;;2.47;;
77573;SDS011;66710;48.868;9.080;2023-06-04T07:09:42;3.67;;;2.22;;
77573;SDS011;66710;48.868;9.080;2023-06-04T07:12:07;4.55;;;2.35;;
77573;SDS011;66710;48.868;9.080;2023-06-04T07:14:32;3.58;;;2.08;;
77573;SDS011;66710;48.868;9.080;2023-06-04T07:16:58;4.60;;;2.30;;
77573;SDS011;66710;48.868;9.080;2023-06-04T07:19:23;5.65;;;2.30;;
77573;SDS011;66710;48.868;9.080;2023-06-04T07:21:49;5.82;;;2.60;;
77573;SDS011;66710;48.868;9.080;2023-06-04T07:24:15;3.83;;;2.40;;
77573;SDS011;66710;48.868;9.080;2023-06-04T07:26:40;4.95;;;2.53;;
77573;SDS011;66710;48.868;9.080;2023-06-04T07:29:06;4.88;;;2.53;;
77573;SDS011;66710;48.868;9.080;2023-06-04T07:31:31;3.88;;;2.30;;
77573;SDS011;66710;48.868;9.080;2023-06-04T07:33:57;5.30;;;2.80;;
77573;SDS011;66710;48.868;9.080;2023-06-04T07:36:22;4.05;;;2.50;;
77573;SDS011;66710;48.868;9.080;2023-06-04T07:38:47;4.57;;;2.42;;
77573;SDS011;66710;48.868;9.080;2023-06-04T07:41:16;4.25;;;2.33;;
77573;SDS011;66710;48.868;9.080;2023-06-04T07:43:42;5.00;;;2.60;;
77573;SDS011;66710;48.868;9.080;2023-06-04T07:46:08;4.88;;;2.70;;
77573;SDS011;66710;48.868;9.080;2023-06-04T07:48:34;4.68;;;2.63;;
77573;SDS011;66710;48.868;9.080;2023-06-04T07:51:00;5.78;;;2.50;;
77573;SDS011;66710;48.868;9.080;2023-06-04T07:53:27;7.07;;;2.67;;
77573;SDS011;66710;48.868;9.080;2023-06-04T07:55:53;4.10;;;2.30;;
77573;SDS011;66710;48.868;9.080;2023-06-04T07:58:19;4.97;;;2.75;;
77573;SDS011;66710;48.868;9.080;2023-06-04T08:00:44;6.30;;;2.75;;
77573;SDS011;66710;48.868;9.080;2023-06-04T08:03:09;4.75;;;2.60;;
77573;SDS011;66710;48.868;9.080;2023-06-04T08:05:35;4.07;;;2.30;;
77573;SDS011;66710;48.868;9.080;2023-06-04T08:08:03;5.18;;;2.47;;
77573;SDS011;66710;48.868;9.080;2023-06-04T08:10:29;3.95;;;2.45;;
77573;SDS011;66710;48.868;9.080;2023-06-04T08:12:55;6.68;;;2.45;;
77573;SDS011;66710;48.868;9.080;2023-06-04T08:15:21;5.32;;;2.55;;
77573;SDS011;66710;48.868;9.080;2023-06-04T08:17:47;5.25;;;2.50;;
77573;SDS011;66710;48.868;9.080;2023-06-04T08:20:12;5.70;;;2.60;;
77573;SDS011;66710;48.868;9.080;2023-06-04T08:22:37;8.10;;;2.47;;
77573;SDS011;66710;48.868;9.080;2023-06-04T08:25:03;5.93;;;2.70;;
77573;SDS011;66710;48.868;9.080;2023-06-04T08:27:29;5.35;;;2.67;;
77573;SDS011;66710;48.868;9.080;2023-06-04T08:29:55;4.22;;;2.47;;
77573;SDS011;66710;48.868;9.080;2023-06-04T08:32:21;4.10;;;2.70;;
77573;SDS011;66710;48.868;9.080;2023-06-04T08:34:46;4.63;;;2.55;;
77573;SDS011;66710;48.868;9.080;2023-06-04T08:37:11;3.97;;;2.58;;
77573;SDS011;66710;48.868;9.080;2023-06-04T08:39:36;4.18;;;2.40;;
77573;SDS011;66710;48.868;9.080;2023-06-04T08:42:06;8.45;;;2.67;;
77573;SDS011;66710;48.868;9.080;2023-06-04T08:44:34;6.03;;;2.78;;
77573;SDS011;66710;48.868;9.080;2023-06-04T08:47:03;4.20;;;2.40;;
77573;SDS011;66710;48.868;9.080;2023-06-04T08:49:35;3.88;;;2.50;;
77573;SDS011;66710;48.868;9.080;2023-06-04T08:52:01;4.88;;;2.60;;
77573;SDS011;66710;48.868;9.080;2023-06-04T08:54:27;5.20;;;2.58;;
77573;SDS011;66710;48.868;9.080;2023-06-04T08:56:55;4.22;;;2.40;;
77573;SDS011;66710;48.868;9.080;2023-06-04T08:59:21;4.05;;;2.50;;
77573;SDS011;66710;48.868;9.080;2023-06-04T09:01:47;6.22;;;2.47;;
77573;SDS011;66710;48.868;9.080;2023-06-04T09:04:13;4.88;;;2.80;;
77573;SDS011;66710;48.868;9.080;2023-06-04T09:06:38;4.05;;;2.53;;
77573;SDS011;66710;48.868;9.080;2023-06-04T09:09:04;4.85;;;2.47;;
77573;SDS011;66710;48.868;9.080;2023-06-04T09:11:56;4.18;;;2.50;;
77573;SDS011;66710;48.868;9.080;2023-06-04T09:14:21;4.68;;;2.78;;
77573;SDS011;66710;48.868;9.080;2023-06-04T09:16:47;3.92;;;2.50;;
77573;SDS011;66710;48.868;9.080;2023-06-04T09:19:17;4.47;;;2.75;;
77573;SDS011;66710;48.868;9.080;2023-06-04T09:21:47;4.32;;;2.40;;
77573;SDS011;66710;48.868;9.080;2023-06-04T09:24:16;5.43;;;2.78;;
77573;SDS011;66710;48.868;9.080;2023-06-04T09:26:46;5.07;;;2.78;;
77573;SDS011;66710;48.868;9.080;2023-06-04T09:29:12;6.30;;;2.90;;
77573;SDS011;66710;48.868;9.080;2023-06-04T09:31:37;5.13;;;2.90;;
77573;SDS011;66710;48.868;9.080;2023-06-04T09:34:04;5.13;;;2.90;;
77573;SDS011;66710;48.868;9.080;2023-06-04T09:36:30;4.80;;;2.80;;
77573;SDS011;66710;48.868;9.080;2023-06-04T09:38:56;5.68;;;2.67;;
77573;SDS011;66710;48.868;9.080;2023-06-04T09:41:21;4.05;;;2.80;;
77573;SDS011;66710;48.868;9.080;2023-06-04T09:43:47;6.05;;;2.70;;
77573;SDS011;66710;48.868;9.080;2023-06-04T09:46:13;6.13;;;2.95;;
77573;SDS011;66710;48.868;9.080;2023-06-04T09:48:40;4.95;;;2.85;;
77573;SDS011;66710;48.868;9.080;2023-06-04T09:51:07;6.18;;;2.80;;
77573;SDS011;66710;48.868;9.080;2023-06-04T09:53:36;5.20;;;2.88;;
77573;SDS011;66710;48.868;9.080;2023-06-04T09:56:02;4.78;;;3.17;;
77573;SDS011;66710;48.868;9.080;2023-06-04T09:58:29;5.15;;;2.75;;
77573;SDS011;66710;48.868;9.080;2023-06-04T10:01:02;5.07;;;2.88;;
77573;SDS011;66710;48.868;9.080;2023-06-04T10:03:32;5.22;;;2.88;;
77573;SDS011;66710;48.868;9.080;2023-06-04T10:08:29;6.57;;;2.88;;
77573;SDS011;66710;48.868;9.080;2023-06-04T10:10:56;4.53;;;2.85;;
77573;SDS011;66710;48.868;9.080;2023-06-04T10:13:26;4.50;;;3.10;;
77573;SDS011;66710;48.868;9.080;2023-06-04T10:15:54;5.50;;;3.58;;
77573;SDS011;66710;48.868;9.080;2023-06-04T10:18:22;4.88;;;3.08;;
77573;SDS011;66710;48.868;9.080;2023-06-04T10:20:48;4.60;;;2.78;;
77573;SDS011;66710;48.868;9.080;2023-06-04T10:23:14;4.82;;;3.13;;
77573;SDS011;66710;48.868;9.080;2023-06-04T10:25:42;6.40;;;3.20;;
77573;SDS011;66710;48.868;9.080;2023-06-04T10:28:08;4.90;;;3.10;;
77573;SDS011;66710;48.868;9.080;2023-06-04T10:30:34;6.13;;;3.10;;
77573;SDS011;66710;48.868;9.080;2023-06-04T10:32:59;6.15;;;3.10;;
77573;SDS011;66710;48.868;9.080;2023-06-04T10:35:31;5.95;;;2.80;;
77573;SDS011;66710;48.868;9.080;2023-06-04T10:38:10;5.47;;;3.20;;
77573;SDS011;66710;48.868;9.080;2023-06-04T10:40:38;5.05;;;3.08;;
77573;SDS011;66710;48.868;9.080;2023-06-04T10:43:05;5.15;;;3.00;;
77573;SDS011;66710;48.868;9.080;2023-06-04T10:45:31;5.57;;;3.10;;
77573;SDS011;66710;48.868;9.080;2023-06-04T10:48:15;5.85;;;3.20;;
77573;SDS011;66710;48.868;9.080;2023-06-04T10:50:50;4.90;;;3.10;;
77573;SDS011;66710;48.868;9.080;2023-06-04T10:53:17;5.85;;;3.03;;
77573;SDS011;66710;48.868;9.080;2023-06-04T10:55:44;4.45;;;2.85;;
77573;SDS011;66710;48.868;9.080;2023-06-04T10:58:11;4.72;;;2.83;;
77573;SDS011;66710;48.868;9.080;2023-06-04T11:00:40;6.30;;;3.08;;
77573;SDS011;66710;48.868;9.080;2023-06-04T11:03:07;6.22;;;3.20;;
77573;SDS011;66710;48.868;9.080;2023-06-04T11:05:34;5.65;;;3.13;;
77573;SDS011;66710;48.868;9.080;2023-06-04T11:08:04;6.43;;;3.20;;
77573;SDS011;66710;48.868;9.080;2023-06-04T11:10:34;5.38;;;2.95;;
77573;SDS011;66710;48.868;9.080;2023-06-04T11:13:01;10.93;;;3.53;;
77573;SDS011;66710;48.868;9.080;2023-06-04T11:15:40;5.07;;;3.47;;
77573;SDS011;66710;48.868;9.080;2023-06-04T11:18:07;6.53;;;3.25;;
77573;SDS011;66710;48.868;9.080;2023-06-04T11:20:32;5.65;;;3.42;;
77573;SDS011;66710;48.868;9.080;2023-06-04T11:22:58;5.10;;;3.40;;
77573;SDS011;66710;48.868;9.080;2023-06-04T11:25:25;4.90;;;3.47;;
77573;SDS011;66710;48.868;9.080;2023-06-04T11:27:52;4.75;;;3.65;;
77573;SDS011;66710;48.868;9.080;2023-06-04T11:30:18;7.40;;;3.20;;
77573;SDS011;66710;48.868;9.080;2023-06-04T11:32:44;6.65;;;3.50;;
77573;SDS011;66710;48.868;9.080;2023-06-04T11:35:09;5.65;;;3.30;;
77573;SDS011;66710;48.868;9.080;2023-06-04T11:37:36;5.40;;;3.45;;
77573;SDS011;66710;48.868;9.080;2023-06-04T11:40:02;5.70;;;3.50;;
77573;SDS011;66710;48.868;9.080;2023-06-04T11:42:30;5.43;;;3.47;;
77573;SDS011;66710;48.868;9.080;2023-06-04T11:44:56;6.32;;;3.38;;
77573;SDS011;66710;48.868;9.080;2023-06-04T11:47:22;5.43;;;3.45;;
77573;SDS011;66710;48.868;9.080;2023-06-04T11:49:54;5.38;;;3.55;;
77573;SDS011;66710;48.868;9.080;2023-06-04T11:52:23;5.57;;;3.25;;
77573;SDS011;66710;48.868;9.080;2023-06-04T11:54:49;6.95;;;3.80;;
77573;SDS011;66710;48.868;9.080;2023-06-04T11:57:15;4.93;;;3.20;;
77573;SDS011;66710;48.868;9.080;2023-06-04T11:59:40;7.00;;;3.28;;
77573;SDS011;66710;48.868;9.080;2023-06-04T12:02:06;5.63;;;3.40;;
77573;SDS011;66710;48.868;9.080;2023-06-04T12:04:32;6.57;;;3.20;;
77573;SDS011;66710;48.868;9.080;2023-06-04T12:06:58;5.00;;;3.15;;
77573;SDS011;66710;48.868;9.080;2023-06-04T12:09:29;4.95;;;3.55;;
77573;SDS011;66710;48.868;9.080;2023-06-04T12:12:05;5.03;;;3.17;;
77573;SDS011;66710;48.868;9.080;2023-06-04T12:14:32;5.15;;;3.03;;
77573;SDS011;66710;48.868;9.080;2023-06-04T12:16:59;6.00;;;3.20;;
77573;SDS011;66710;48.868;9.080;2023-06-04T12:19:31;4.53;;;3.17;;
77573;SDS011;66710;48.868;9.080;2023-06-04T12:22:03;4.72;;;3.50;;
77573;SDS011;66710;48.868;9.080;2023-06-04T12:24:30;5.53;;;3.40;;
77573;SDS011;66710;48.868;9.080;2023-06-04T12:29:29;5.72;;;3.90;;
77573;SDS011;66710;48.868;9.080;2023-06-04T12:32:01;5.20;;;3.40;;
77573;SDS011;66710;48.868;9.080;2023-06-04T12:34:32;4.85;;;3.65;;
77573;SDS011;66710;48.868;9.080;2023-06-04T12:36:58;6.03;;;2.88;;
77573;SDS011;66710;48.868;9.080;2023-06-04T12:39:23;5.72;;;2.88;;
77573;SDS011;66710;48.868;9.080;2023-06-04T12:41:49;5.10;;;3.20;;
77573;SDS011;66710;48.868;9.080;2023-06-04T12:44:14;7.53;;;3.03;;
77573;SDS011;66710;48.868;9.080;2023-06-04T12:46:40;5.40;;;2.95;;
77573;SDS011;66710;48.868;9.080;2023-06-04T12:49:05;4.57;;;3.20;;
77573;SDS011;66710;48.868;9.080;2023-06-04T12:51:31;4.63;;;2.95;;
77573;SDS011;66710;48.868;9.080;2023-06-04T12:53:56;5.25;;;3.00;;
77573;SDS011;66710;48.868;9.080;2023-06-04T12:56:22;4.30;;;2.95;;
77573;SDS011;66710;48.868;9.080;2023-06-04T12:58:47;4.25;;;3.10;;
77573;SDS011;66710;48.868;9.080;2023-06-04T13:01:13;5.60;;;3.03;;
77573;SDS011;66710;48.868;9.080;2023-06-04T13:03:39;5.30;;;3.20;;
77573;SDS011;66710;48.868;9.080;2023-06-04T13:06:05;8.50;;;3.40;;
77573;SDS011;66710;48.868;9.080;2023-06-04T13:08:30;4.85;;;3.10;;
77573;SDS011;66710;48.868;9.080;2023-06-04T13:10:56;5.68;;;3.10;;
77573;SDS011;66710;48.868;9.080;2023-06-04T13:13:21;4.85;;;3.10;;
77573;SDS011;66710;48.868;9.080;2023-06-04T13:15:47;5.65;;;3.40;;
77573;SDS011;66710;48.868;9.080;2023-06-04T13:18:12;6.38;;;2.95;;
77573;SDS011;66710;48.868;9.080;2023-06-04T13:20:37;4.35;;;3.20;;
77573;SDS011;66710;48.868;9.080;2023-06-04T13:23:05;5.28;;;3.35;;
77573;SDS011;66710;48.868;9.080;2023-06-04T13:25:31;5.47;;;3.15;;
77573;SDS011;66710;48.868;9.080;2023-06-04T13:28:01;7.15;;;3.45;;
77573;SDS011;66710;48.868;9.080;2023-06-04T13:30:27;5.05;;;3.03;;
77573;SDS011;66710;48.868;9.080;2023-06-04T13:32:53;5.78;;;3.03;;
77573;SDS011;66710;48.868;9.080;2023-06-04T13:35:18;5.55;;;3.08;;
77573;SDS011;66710;48.868;9.080;2023-06-04T13:37:44;5.03;;;3.50;;
77573;SDS011;66710;48.868;9.080;2023-06-04T13:40:09;4.93;;;2.88;;
77573;SDS011;66710;48.868;9.080;2023-06-04T13:42:35;5.72;;;3.85;;
77573;SDS011;66710;48.868;9.080;2023-06-04T13:45:00;9.43;;;4.78;;
77573;SDS011;66710;48.868;9.080;2023-06-04T13:47:25;5.90;;;3.40;;
77573;SDS011;66710;48.868;9.080;2023-06-04T13:49:52;6.20;;;3.53;;
77573;SDS011;66710;48.868;9.080;2023-06-04T13:52:17;5.05;;;3.78;;
77573;SDS011;66710;48.868;9.080;2023-06-04T13:54:42;4.88;;;3.40;;
77573;SDS011;66710;48.868;9.080;2023-06-04T13:57:08;4.93;;;3.70;;
77573;SDS011;66710;48.868;9.080;2023-06-04T13:59:37;6.55;;;3.25;;
77573;SDS011;66710;48.868;9.080;2023-06-04T14:02:03;5.20;;;3.30;;
77573;SDS011;66710;48.868;9.080;2023-06-04T14:04:29;4.95;;;2.97;;
77573;SDS011;66710;48.868;9.080;2023-06-04T14:06:55;5.15;;;3.40;;
77573;SDS011;66710;48.868;9.080;2023-06-04T14:09:20;4.85;;;3.40;;
77573;SDS011;66710;48.868;9.080;2023-06-04T14:11:45;6.95;;;3.83;;
77573;SDS011;66710;48.868;9.080;2023-06-04T14:14:15;5.65;;;3.45;;
77573;SDS011;66710;48.868;9.080;2023-06-04T14:16:47;4.90;;;3.30;;
77573;SDS011;66710;48.868;9.080;2023-06-04T14:19:13;5.53;;;3.50;;
77573;SDS011;66710;48.868;9.080;2023-06-04T14:21:40;6.55;;;3.58;;
77573;SDS011;66710;48.868;9.080;2023-06-04T14:24:08;6.43;;;3.40;;
77573;SDS011;66710;48.868;9.080;2023-06-04T14:26:34;5.63;;;3.20;;
77573;SDS011;66710;48.868;9.080;2023-06-04T14:29:00;5.35;;;3.60;;
77573;SDS011;66710;48.868;9.080;2023-06-04T14:31:26;5.72;;;3.55;;
77573;SDS011;66710;48.868;9.080;2023-06-04T14:33:54;6.55;;;3.28;;
77573;SDS011;66710;48.868;9.080;2023-06-04T14:36:19;4.97;;;3.30;;
77573;SDS011;66710;48.868;9.080;2023-06-04T14:38:44;5.15;;;3.28;;
77573;SDS011;66710;48.868;9.080;2023-06-04T14:41:10;5.93;;;3.50;;
77573;SDS011;66710;48.868;9.080;2023-06-04T14:43:36;5.55;;;3.40;;
77573;SDS011;66710;48.868;9.080;2023-06-04T14:46:01;6.05;;;3.20;;
77573;SDS011;66710;48.868;9.080;2023-06-04T14:48:27;5.28;;;3.40;;
77573;SDS011;66710;48.868;9.080;2023-06-04T14:50:52;5.68;;;3.40;;